createdAt,value
2022-09-01T00:00:01.306Z,77.85
2022-09-01T00:02:50.802Z,79.46
2022-09-01T00:05:19.125Z,80.66
2022-09-01T00:07:46.196Z,83.57
2022-09-01T00:10:13.064Z,85.39
2022-09-01T00:12:40.264Z,84.85
2022-09-01T00:15:09.618Z,86.06
2022-09-01T00:17:36.403Z,87.41
2022-09-01T00:20:06.722Z,89.17
2022-09-01T00:22:33.919Z,89.67
2022-09-01T00:25:02.075Z,88.50
2022-09-01T05:18:36.535Z,100.00
2022-09-01T05:21:09.947Z,100.00
2022-09-01T05:23:40.719Z,100.00
2022-09-01T05:26:17.170Z,100.00
2022-09-01T05:28:49.808Z,100.00
2022-09-01T05:31:19.784Z,100.00
2022-09-01T05:33:49.956Z,100.00
2022-09-01T05:36:20.185Z,100.00
2022-09-01T05:38:48.772Z,100.00
2022-09-01T05:41:17.577Z,100.00
2022-09-01T05:43:48.259Z,100.00
2022-09-01T05:46:21.014Z,100.00
2022-09-01T05:48:51.935Z,100.00
2022-09-01T05:51:43.410Z,100.00
2022-09-01T05:54:09.836Z,100.00
2022-09-01T05:56:43.592Z,100.00
2022-09-01T05:59:28.587Z,100.00
2022-09-01T06:01:56.301Z,100.00
2022-09-01T06:04:25.637Z,100.00
2022-09-01T06:07:06.919Z,100.00
2022-09-01T06:09:39.761Z,100.00
2022-09-01T06:12:07.093Z,100.00
2022-09-01T06:14:35.028Z,100.00
2022-09-01T06:17:03.254Z,100.00
2022-09-01T06:19:36.712Z,100.00
2022-09-01T06:22:04.927Z,100.00
2022-09-01T06:24:31.718Z,100.00
2022-09-01T06:26:59.796Z,100.00
2022-09-01T06:29:26.816Z,100.00
2022-09-01T06:31:53.589Z,100.00
2022-09-01T06:34:20.738Z,100.00
2022-09-01T06:36:49.581Z,100.00
2022-09-01T06:39:19.917Z,100.00
2022-09-01T06:41:53.114Z,99.77
2022-09-01T06:44:23.084Z,100.00
2022-09-01T06:46:51.968Z,100.00
2022-09-01T06:49:21.437Z,99.11
2022-09-01T06:51:49.746Z,98.69
2022-09-01T06:54:19.065Z,97.60
2022-09-01T06:56:51.942Z,98.43
2022-09-01T06:59:21.073Z,99.78
2022-09-01T07:01:49.920Z,99.08
2022-09-01T07:04:22.154Z,99.75
2022-09-01T07:07:00.369Z,98.41
2022-09-01T07:09:47.682Z,100.00
2022-09-01T07:17:56.176Z,98.17
2022-09-01T07:20:28.832Z,97.75
2022-09-01T07:23:05.645Z,97.43
2022-09-01T07:26:01.646Z,98.03
2022-09-01T07:28:36.925Z,97.88
2022-09-01T07:33:55.789Z,98.96
2022-09-01T07:39:48.998Z,97.25
2022-09-01T07:42:30.152Z,100.00
2022-09-01T07:45:27.155Z,93.27
2022-09-01T07:47:54.978Z,90.27
2022-09-01T07:50:39.857Z,93.55
2022-09-01T07:53:09.459Z,96.96
2022-09-01T07:55:41.524Z,95.76
2022-09-01T07:58:27.600Z,95.80
2022-09-01T08:00:55.552Z,95.97
2022-09-01T08:03:24.775Z,96.16
2022-09-01T08:05:57.683Z,89.60
2022-09-01T08:08:28.722Z,90.31
2022-09-01T08:11:04.343Z,92.26
2022-09-01T08:13:37.346Z,88.68
2022-09-01T08:16:16.799Z,89.47
2022-09-01T08:18:48.493Z,89.13
2022-09-01T08:21:17.038Z,85.05
2022-09-01T08:23:44.368Z,85.81
2022-09-01T08:26:15.593Z,83.83
2022-09-01T08:28:46.193Z,85.40
2022-09-01T08:31:17.528Z,86.37
2022-09-01T08:33:47.469Z,85.14
2022-09-01T08:36:20.175Z,87.60
2022-09-01T08:38:51.318Z,90.34
2022-09-01T08:41:39.972Z,90.95
2022-09-01T08:44:28.067Z,89.14
2022-09-01T08:47:01.345Z,89.35
2022-09-01T08:49:29.261Z,89.94
2022-09-01T08:52:01.174Z,89.83
2022-09-01T08:54:29.705Z,86.59
2022-09-01T08:57:07.160Z,85.84
2022-09-01T08:59:33.966Z,86.29
2022-09-01T09:02:32.864Z,86.70
2022-09-01T09:05:21.143Z,87.11
2022-09-01T09:08:10.731Z,85.84
2022-09-01T09:10:58.818Z,86.82
2022-09-01T09:13:56.876Z,83.97
2022-09-01T09:16:29.142Z,82.38
2022-09-01T09:19:01.958Z,79.28
2022-09-01T09:21:40.860Z,80.65
2022-09-01T09:24:48.331Z,81.04
2022-09-01T09:27:22.761Z,80.07
2022-09-01T09:29:52.285Z,83.11
2022-09-01T09:32:31.324Z,82.35
2022-09-01T09:35:38.067Z,79.90
2022-09-01T09:38:22.671Z,83.45
2022-09-01T09:41:17.025Z,81.46
2022-09-01T09:44:03.536Z,83.51
2022-09-01T09:46:39.239Z,75.16
2022-09-01T09:49:34.699Z,74.91
2022-09-01T09:52:09.663Z,75.98
2022-09-01T09:54:39.279Z,73.69
2022-09-01T09:57:09.098Z,74.61
2022-09-01T10:00:01.345Z,72.54
2022-09-01T10:02:32.676Z,74.05
2022-09-01T10:05:25.001Z,72.39
2022-09-01T10:07:53.136Z,73.05
2022-09-01T10:10:38.610Z,71.13
2022-09-01T10:13:10.678Z,70.67
2022-09-01T10:15:38.947Z,70.68
2022-09-01T10:18:32.830Z,69.83
2022-09-01T10:21:04.638Z,71.24
2022-09-01T10:23:34.920Z,69.02
2022-09-01T10:26:11.357Z,71.26
2022-09-01T10:28:53.491Z,69.24
2022-09-01T10:31:22.405Z,67.22
2022-09-01T10:33:50.930Z,69.84
2022-09-01T10:36:19.910Z,66.08
2022-09-01T10:38:53.827Z,64.84
2022-09-01T10:42:00.176Z,63.32
2022-09-01T10:44:35.717Z,59.50
2022-09-01T10:47:23.865Z,58.18
2022-09-01T10:49:53.367Z,56.66
2022-09-01T10:52:50.324Z,54.49
2022-09-01T10:55:39.759Z,53.74
2022-09-01T11:01:48.689Z,54.11
2022-09-01T11:04:18.111Z,54.53
2022-09-01T11:09:42.834Z,51.56
2022-09-01T11:12:37.550Z,50.54
2022-09-01T11:15:26.762Z,50.26
2022-09-01T11:17:53.598Z,48.63
2022-09-01T11:20:36.657Z,48.05
2022-09-01T11:23:05.585Z,48.92
2022-09-01T11:25:39.086Z,48.31
2022-09-01T11:28:12.129Z,47.75
2022-09-01T11:30:52.805Z,47.45
2022-09-01T11:33:22.600Z,46.58
2022-09-01T11:35:59.286Z,44.64
2022-09-01T11:38:28.935Z,44.10
2022-09-01T11:40:57.974Z,45.33
2022-09-01T11:43:27.186Z,45.42
2022-09-01T11:46:09.749Z,45.91
2022-09-01T11:48:39.252Z,44.48
2022-09-01T11:51:06.298Z,44.49
2022-09-01T11:53:33.991Z,45.28
2022-09-01T11:56:20.381Z,42.47
2022-09-01T11:58:47.528Z,42.26
2022-09-01T12:01:18.880Z,44.33
2022-09-01T12:03:48.619Z,43.35
2022-09-01T12:06:25.316Z,43.21
2022-09-01T12:08:59.035Z,42.55
2022-09-01T12:11:31.442Z,41.00
2022-09-01T12:14:06.642Z,40.75
2022-09-01T12:16:42.050Z,41.58
2022-09-01T12:19:11.891Z,39.40
2022-09-01T12:21:43.879Z,39.65
2022-09-01T12:24:17.990Z,38.85
2022-09-01T12:26:46.849Z,39.44
2022-09-01T12:29:14.586Z,36.67
2022-09-01T12:31:43.471Z,36.03
2022-09-01T12:34:44.837Z,34.46
2022-09-01T12:37:22.362Z,34.44
2022-09-01T12:39:52.198Z,34.74
2022-09-01T12:42:19.291Z,34.50
2022-09-01T12:45:03.992Z,33.44
2022-09-01T12:47:33.606Z,33.61
2022-09-01T12:50:03.367Z,33.17
2022-09-01T12:52:33.188Z,32.05
2022-09-01T12:55:00.073Z,32.36
2022-09-01T12:57:31.369Z,31.94
2022-09-01T13:00:20.736Z,31.85
2022-09-01T13:02:53.627Z,31.15
2022-09-01T13:05:38.747Z,31.41
2022-09-01T13:08:14.071Z,31.05
2022-09-01T13:10:51.704Z,30.20
2022-09-01T13:13:20.271Z,28.96
2022-09-01T13:15:53.281Z,29.05
2022-09-01T13:18:22.299Z,29.24
2022-09-01T13:20:49.721Z,30.16
2022-09-01T13:23:17.412Z,31.66
2022-09-01T13:25:44.672Z,28.69
2022-09-01T13:28:12.048Z,30.37
2022-09-01T13:30:39.632Z,30.06
2022-09-01T13:33:23.114Z,30.50
2022-09-01T13:35:51.286Z,29.86
2022-09-01T13:38:19.439Z,30.92
2022-09-01T13:40:49.184Z,29.37
2022-09-01T13:43:19.625Z,30.13
2022-09-01T13:45:47.566Z,28.94
2022-09-01T13:48:16.656Z,28.19
2022-09-01T13:53:33.574Z,27.61
2022-09-01T13:56:00.491Z,26.39
2022-09-01T13:58:27.605Z,28.39
2022-09-01T14:00:54.718Z,27.09
2022-09-01T14:03:23.725Z,28.90
2022-09-01T14:05:50.965Z,28.71
2022-09-01T14:08:21.418Z,30.06
2022-09-01T14:10:51.020Z,29.94
2022-09-01T14:13:20.747Z,30.82
2022-09-01T14:15:49.241Z,31.04
2022-09-01T14:18:17.397Z,31.87
2022-09-01T14:20:47.286Z,31.94
2022-09-01T14:23:15.689Z,32.87
2022-09-01T14:25:48.741Z,33.27
2022-09-01T14:28:20.092Z,32.78
2022-09-01T14:30:48.950Z,32.80
2022-09-01T14:33:17.505Z,32.39
2022-09-01T14:35:47.689Z,31.56
2022-09-01T14:38:15.010Z,32.24
2022-09-01T14:40:43.813Z,32.74
2022-09-01T14:43:14.114Z,32.58
2022-09-01T14:45:44.687Z,30.34
2022-09-01T14:48:12.514Z,29.80
2022-09-01T14:50:44.708Z,30.87
2022-09-01T14:53:12.532Z,31.69
2022-09-01T14:55:43.626Z,31.04
2022-09-01T14:58:10.768Z,30.02
2022-09-01T15:00:41.014Z,29.66
2022-09-01T15:03:09.721Z,30.11
2022-09-01T15:05:39.793Z,28.39
2022-09-01T15:08:08.640Z,27.34
2022-09-01T15:10:36.557Z,25.41
2022-09-01T15:13:03.648Z,26.11
2022-09-01T15:15:31.404Z,26.72
2022-09-01T15:18:00.198Z,26.49
2022-09-01T15:20:45.949Z,28.23
2022-09-01T15:23:16.767Z,27.07
2022-09-01T15:25:44.123Z,23.75
2022-09-01T15:28:11.276Z,23.56
2022-09-01T15:30:39.842Z,23.06
2022-09-01T15:33:10.876Z,23.90
2022-09-01T15:35:42.138Z,22.56
2022-09-01T15:38:10.296Z,22.03
2022-09-01T15:40:41.501Z,20.91
2022-09-01T15:43:09.168Z,19.79
2022-09-01T15:45:35.938Z,20.24
2022-09-01T15:48:03.276Z,20.06
2022-09-01T15:50:30.223Z,21.55
2022-09-01T15:52:59.798Z,22.05
2022-09-01T15:55:30.313Z,24.21
2022-09-01T15:57:58.959Z,24.77
2022-09-01T16:00:27.500Z,25.81
2022-09-01T16:02:56.552Z,27.98
2022-09-01T16:05:25.221Z,29.98
2022-09-01T16:07:53.103Z,31.63
2022-09-01T16:10:21.353Z,33.07
2022-09-01T16:12:51.840Z,33.84
2022-09-01T16:15:22.260Z,34.48
2022-09-01T16:17:52.504Z,36.08
2022-09-01T16:20:23.992Z,36.62
2022-09-01T16:22:57.780Z,38.58
2022-09-01T16:25:29.847Z,40.65
2022-09-01T16:27:58.657Z,40.17
2022-09-01T16:30:29.371Z,41.18
2022-09-01T16:33:03.635Z,42.10
2022-09-01T16:35:47.953Z,43.08
2022-09-01T16:38:35.694Z,44.19
2022-09-01T16:41:48.202Z,45.39
2022-09-01T16:44:35.234Z,45.56
2022-09-01T16:47:36.935Z,46.06
2022-09-01T16:50:16.165Z,46.63
2022-09-01T16:53:11.511Z,48.47
2022-09-01T16:55:43.852Z,47.33
2022-09-01T16:58:49.424Z,47.01
2022-09-01T17:01:25.200Z,47.20
2022-09-01T17:04:12.546Z,48.38
2022-09-01T17:06:57.743Z,49.57
2022-09-01T17:09:39.951Z,50.00
2022-09-01T17:12:11.848Z,51.16
2022-09-01T17:14:47.514Z,50.72
2022-09-01T17:17:20.301Z,50.93
2022-09-01T17:19:52.519Z,51.13
2022-09-01T17:22:21.036Z,52.81
2022-09-01T17:25:09.807Z,53.55
2022-09-01T17:27:55.645Z,52.48
2022-09-01T17:30:22.650Z,52.70
2022-09-01T17:33:17.414Z,53.13
2022-09-01T17:35:48.644Z,53.61
2022-09-01T17:38:28.523Z,53.63
2022-09-01T17:41:36.110Z,54.67
2022-09-01T17:44:35.650Z,54.94
2022-09-01T17:47:13.746Z,54.58
2022-09-01T17:50:10.615Z,55.19
2022-09-01T17:53:10.145Z,55.27
2022-09-01T17:55:40.912Z,55.50
2022-09-01T17:58:20.027Z,58.38
2022-09-01T18:00:59.208Z,59.60
2022-09-01T18:03:45.946Z,58.91
2022-09-01T18:06:39.764Z,61.32
2022-09-01T18:09:07.175Z,62.90
2022-09-01T18:12:02.720Z,63.58
2022-09-01T18:14:39.067Z,63.96
2022-09-01T18:17:18.393Z,63.16
2022-09-01T18:19:52.763Z,62.66
2022-09-01T18:22:24.982Z,63.32
2022-09-01T18:25:06.879Z,62.17
2022-09-01T18:27:34.932Z,63.69
2022-09-01T18:30:01.930Z,64.96
2022-09-01T18:32:29.192Z,64.85
2022-09-01T18:34:55.946Z,66.10
2022-09-01T18:38:07.946Z,65.97
2022-09-01T18:40:37.487Z,68.04
2022-09-01T18:43:20.088Z,65.99
2022-09-01T18:45:59.212Z,66.59
2022-09-01T18:48:28.890Z,67.67
2022-09-01T18:51:12.016Z,69.31
2022-09-01T18:53:54.013Z,69.81
2022-09-01T18:56:25.842Z,70.38
2022-09-01T18:59:14.154Z,71.89
2022-09-01T19:02:09.784Z,72.43
2022-09-01T19:04:41.148Z,72.55
2022-09-01T19:07:38.609Z,73.30
2022-09-01T19:10:18.461Z,74.73
2022-09-01T19:13:09.866Z,73.43
2022-09-01T19:16:08.492Z,73.61
2022-09-01T19:18:44.592Z,74.90
2022-09-01T19:21:32.303Z,74.41
2022-09-01T19:24:03.171Z,75.64
2022-09-01T19:26:39.128Z,74.09
2022-09-01T19:29:12.523Z,74.61
2022-09-01T19:31:42.404Z,74.91
2022-09-01T19:34:18.022Z,75.23
2022-09-01T19:36:53.204Z,75.21
2022-09-01T19:39:26.080Z,74.94
2022-09-01T19:42:15.532Z,73.61
2022-09-01T19:44:44.530Z,73.83
2022-09-01T19:47:18.208Z,73.60
2022-09-01T19:49:45.066Z,73.08
2022-09-01T19:52:20.173Z,72.79
2022-09-01T19:54:51.980Z,74.00
2022-09-01T19:57:48.048Z,74.12
2022-09-01T20:00:19.866Z,72.64
2022-09-01T20:02:56.427Z,72.62
2022-09-01T20:05:34.544Z,72.04
2022-09-01T20:08:08.414Z,71.32
2022-09-01T20:10:56.265Z,71.97
2022-09-01T20:13:29.837Z,71.31
2022-09-01T20:16:33.561Z,70.17
2022-09-01T20:19:10.620Z,71.74
2022-09-01T20:21:41.988Z,71.54
2022-09-01T20:24:16.904Z,73.29
2022-09-01T20:26:48.494Z,70.55
2022-09-01T20:29:35.945Z,72.16
2022-09-01T20:32:04.116Z,71.95
2022-09-01T20:34:48.602Z,72.10
2022-09-01T20:37:35.598Z,71.96
2022-09-01T20:40:12.030Z,71.26
2022-09-01T20:43:00.441Z,72.10
2022-09-01T20:45:29.279Z,74.31
2022-09-01T20:47:59.270Z,72.99
2022-09-01T20:50:33.264Z,74.00
2022-09-01T20:53:24.637Z,74.00
2022-09-01T20:55:57.246Z,72.42
2022-09-01T20:58:42.917Z,72.81
2022-09-01T21:01:30.102Z,72.89
2022-09-01T21:04:15.971Z,72.19
2022-09-01T21:07:15.148Z,74.32
2022-09-01T21:09:51.325Z,73.67
2022-09-01T21:12:33.009Z,72.89
2022-09-01T21:15:21.218Z,71.64
2022-09-01T21:18:22.272Z,71.75
2022-09-01T21:21:00.431Z,71.87
2022-09-01T21:23:31.079Z,70.64
2022-09-01T21:25:59.327Z,70.75
2022-09-01T21:28:28.298Z,69.78
2022-09-01T21:30:58.136Z,68.91
2022-09-01T21:33:27.893Z,67.71
2022-09-01T21:35:55.548Z,69.10
2022-09-01T21:38:22.399Z,68.79
2022-09-01T21:40:50.630Z,68.72
2022-09-01T21:43:21.237Z,68.53
2022-09-01T21:45:48.542Z,67.03
2022-09-01T21:48:16.290Z,67.05
2022-09-01T21:50:43.278Z,67.34
2022-09-01T21:53:10.735Z,65.63
2022-09-01T21:55:37.833Z,66.15
2022-09-01T21:58:04.638Z,67.35
2022-09-01T22:00:39.382Z,67.30
2022-09-01T22:03:07.651Z,68.85
2022-09-01T22:05:35.830Z,67.36
2022-09-01T22:08:03.009Z,67.41
2022-09-01T22:10:31.605Z,67.77
2022-09-01T22:13:00.674Z,65.65
2022-09-01T22:15:27.448Z,64.46
2022-09-01T22:17:57.576Z,64.47
2022-09-01T22:20:25.435Z,63.89
2022-09-01T22:22:54.708Z,62.27
2022-09-01T22:25:24.010Z,61.59
2022-09-01T22:27:50.835Z,60.61
2022-09-01T22:30:19.222Z,60.25
2022-09-01T22:32:47.867Z,58.68
2022-09-01T22:35:16.604Z,58.81
2022-09-01T22:37:43.711Z,59.26
2022-09-01T22:40:12.814Z,59.50
2022-09-01T22:42:39.743Z,59.30
2022-09-01T22:45:08.440Z,60.04
2022-09-01T22:47:37.105Z,59.06
2022-09-01T22:50:07.236Z,59.92
2022-09-01T22:52:35.627Z,59.12
2022-09-01T22:55:03.386Z,59.59
2022-09-01T22:57:33.383Z,59.98
2022-09-01T23:00:00.914Z,58.08
2022-09-01T23:02:28.475Z,58.66
2022-09-01T23:04:55.393Z,58.77
2022-09-01T23:07:22.235Z,58.04
2022-09-01T23:09:49.239Z,58.21
2022-09-01T23:12:16.000Z,58.08
2022-09-01T23:14:42.850Z,57.76
2022-09-01T23:17:09.879Z,58.09
2022-09-01T23:19:36.998Z,57.43
2022-09-01T23:22:04.426Z,57.09
2022-09-01T23:24:31.445Z,55.76
2022-09-01T23:26:58.226Z,56.62
2022-09-01T23:29:25.408Z,57.42
2022-09-01T23:31:52.947Z,57.54
2022-09-01T23:34:19.810Z,57.96
2022-09-01T23:36:46.671Z,57.64
2022-09-01T23:39:14.201Z,58.58
2022-09-01T23:41:41.522Z,58.43
2022-09-01T23:44:10.914Z,58.97
2022-09-01T23:46:44.664Z,58.47
2022-09-01T23:49:12.869Z,57.80
2022-09-01T23:51:40.635Z,57.79
2022-09-01T23:54:07.889Z,58.32
2022-09-01T23:56:35.061Z,57.74
2022-09-01T23:59:02.092Z,59.24
